Time;durP1;ratioP1;P1;durP2;ratioP2;P2;SDS_P1;SDS_P2;PMS_P1;PMS_P2;Temp;Humidity;BMP_temperature;BMP_pressure;BME280_temperature;BME280_humidity;BME280_pressure;Samples;Min_cycle;Max_cycle;Signal;HPM_P1;HPM_P2
2021/12/16 00:29:19;;;;;;;16.05;11.90;;;9.50;66.80;;;;;;5032370;28;20103;-69
2021/12/16 00:31:53;;;;;;;15.30;11.95;;;9.50;66.70;;;;;;5032097;28;20037;-65
2021/12/16 00:34:21;;;;;;;16.98;12.68;;;9.50;66.90;;;;;;5031901;28;20063;-67
2021/12/16 00:36:49;;;;;;;16.67;12.35;;;9.40;66.90;;;;;;5014693;28;20037;-63
2021/12/16 00:39:28;;;;;;;17.58;12.90;;;9.50;66.90;;;;;;5014146;28;20029;-69
2021/12/16 00:42:00;;;;;;;15.32;11.82;;;9.50;66.80;;;;;;5015018;28;20117;-64
2021/12/16 00:47:00;;;;;;;17.08;11.95;;;9.60;66.80;;;;;;5032110;28;20060;-68
2021/12/16 00:54:44;;;;;;;16.83;11.38;;;9.50;66.80;;;;;;5038201;28;20039;-68
2021/12/16 00:57:13;;;;;;;16.08;12.43;;;9.50;66.90;;;;;;5020871;28;20057;-62
2021/12/16 00:59:44;;;;;;;15.95;11.27;;;9.50;67.00;;;;;;5038518;28;20033;-64
2021/12/16 01:05:01;;;;;;;13.73;10.65;;;9.60;66.80;;;;;;5038323;28;20100;-66
2021/12/16 01:33:33;;;;;;;17.35;11.00;;;9.50;66.80;;;;;;5038258;28;20397;-63
2021/12/16 01:35:42;;;;;;;15.23;11.15;;;9.50;66.50;;;;;;5037490;28;20037;-68
2021/12/16 01:39:00;;;;;;;13.70;9.70;;;9.50;66.60;;;;;;5038165;28;20021;-68
2021/12/16 01:52:03;;;;;;;12.85;9.23;;;9.40;67.00;;;;;;5038634;28;20022;-65
2021/12/16 01:57:38;;;;;;;14.00;9.38;;;9.40;67.10;;;;;;5038547;28;20120;-69
2021/12/16 02:00:27;;;;;;;13.65;9.30;;;9.30;67.00;;;;;;5024094;28;20442;-62
2021/12/16 02:03:00;;;;;;;14.30;8.65;;;9.40;67.10;;;;;;5020761;28;20044;-60
2021/12/16 02:06:05;;;;;;;13.38;8.80;;;9.40;67.30;;;;;;5034940;28;20033;-60
2021/12/16 02:08:34;;;;;;;11.70;8.70;;;9.30;67.00;;;;;;5017148;28;20025;-63
2021/12/16 02:11:23;;;;;;;11.80;8.82;;;9.40;67.10;;;;;;5034920;28;20046;-62
2021/12/16 02:27:33;;;;;;;11.02;8.27;;;9.50;66.90;;;;;;5019436;28;20028;-62
2021/12/16 02:33:39;;;;;;;10.68;7.78;;;9.40;67.00;;;;;;5034963;28;20482;-62
2021/12/16 02:36:01;;;;;;;11.35;8.57;;;9.40;67.20;;;;;;5026042;28;20432;-59
2021/12/16 02:38:30;;;;;;;11.48;8.45;;;9.40;67.30;;;;;;5034531;28;20029;-61
2021/12/16 02:40:56;;;;;;;15.60;8.68;;;9.40;67.30;;;;;;5017177;28;20025;-60
2021/12/16 02:44:06;;;;;;;12.18;8.48;;;9.40;67.20;;;;;;5016346;28;20467;-60
2021/12/16 02:48:41;;;;;;;12.98;8.65;;;9.50;67.10;;;;;;5034316;28;20030;-60
2021/12/16 02:51:12;;;;;;;12.88;8.50;;;9.50;67.20;;;;;;5034992;28;20025;-60
2021/12/16 02:53:45;;;;;;;11.32;7.97;;;9.40;67.30;;;;;;5016419;28;20210;-61
2021/12/16 02:56:11;;;;;;;13.52;8.75;;;9.40;67.40;;;;;;5016639;28;20021;-61
2021/12/16 02:58:41;;;;;;;10.90;8.40;;;9.40;67.40;;;;;;5033712;28;20037;-61
2021/12/16 03:01:11;;;;;;;10.82;7.65;;;9.40;67.40;;;;;;5034614;28;20018;-59
2021/12/16 03:03:39;;;;;;;12.50;8.23;;;9.50;67.20;;;;;;5034294;28;20112;-61
2021/12/16 03:06:05;;;;;;;11.10;8.30;;;9.50;67.20;;;;;;5034433;28;20034;-65
2021/12/16 03:08:33;;;;;;;12.60;8.07;;;9.50;67.30;;;;;;5016089;28;20076;-59
2021/12/16 03:13:43;;;;;;;11.45;8.38;;;9.50;67.40;;;;;;5033522;28;20024;-60
2021/12/16 03:21:39;;;;;;;14.15;8.32;;;9.40;67.40;;;;;;5032760;28;20413;-61
2021/12/16 03:31:59;;;;;;;12.50;9.35;;;9.50;67.20;;;;;;5033440;28;20021;-61
2021/12/16 03:39:39;;;;;;;11.13;8.63;;;9.40;67.50;;;;;;5033189;28;20033;-60
2021/12/16 03:42:05;;;;;;;11.80;9.10;;;9.40;67.50;;;;;;5015927;28;20021;-61
2021/12/16 03:44:48;;;;;;;11.80;8.77;;;9.40;67.40;;;;;;5032972;28;20051;-60
2021/12/16 03:47:16;;;;;;;12.40;8.57;;;9.30;67.60;;;;;;5016177;28;20436;-59
2021/12/16 03:49:42;;;;;;;12.15;9.40;;;9.30;67.80;;;;;;5015049;28;20079;-63
2021/12/16 03:52:09;;;;;;;14.82;9.98;;;9.30;67.90;;;;;;5033546;28;20021;-62
2021/12/16 03:54:41;;;;;;;11.80;9.52;;;9.30;68.00;;;;;;5033058;28;20018;-60
2021/12/16 03:57:10;;;;;;;12.85;9.63;;;9.30;67.90;;;;;;5033360;28;20065;-62
2021/12/16 03:59:38;;;;;;;12.13;9.40;;;9.30;68.00;;;;;;5015153;28;20075;-62
2021/12/16 04:02:09;;;;;;;14.00;10.25;;;9.40;67.90;;;;;;5032963;28;20449;-62
2021/12/16 04:04:38;;;;;;;12.05;9.85;;;9.40;67.80;;;;;;5032773;28;20032;-59
2021/12/16 04:07:06;;;;;;;13.48;10.68;;;9.30;67.90;;;;;;5033033;28;20022;-62
2021/12/16 04:09:33;;;;;;;13.43;9.88;;;9.40;68.00;;;;;;5032765;28;20067;-58
2021/12/16 04:12:11;;;;;;;15.02;10.45;;;9.40;68.00;;;;;;5033204;28;20029;-61
2021/12/16 04:14:40;;;;;;;15.43;9.50;;;9.40;67.90;;;;;;5011544;28;20061;-61
2021/12/16 04:17:08;;;;;;;12.52;9.55;;;9.40;68.00;;;;;;5013164;28;20041;-60
2021/12/16 04:19:36;;;;;;;13.63;10.77;;;9.40;68.00;;;;;;5012550;28;20014;-61
2021/12/16 04:22:07;;;;;;;11.85;9.43;;;9.30;68.00;;;;;;5013083;28;20021;-61
2021/12/16 04:24:33;;;;;;;12.93;9.40;;;9.30;68.00;;;;;;5011482;28;20037;-61
2021/12/16 04:27:00;;;;;;;13.60;9.88;;;9.20;68.50;;;;;;5011585;28;20022;-60
2021/12/16 04:29:26;;;;;;;15.63;11.05;;;9.20;68.60;;;;;;5011252;28;20362;-66
2021/12/16 04:31:54;;;;;;;15.10;10.55;;;9.20;68.60;;;;;;5013214;28;20021;-63
2021/12/16 04:34:20;;;;;;;17.10;11.63;;;9.20;68.70;;;;;;5012943;28;20026;-61
2021/12/16 04:36:46;;;;;;;14.52;11.18;;;9.20;68.60;;;;;;5012348;28;20022;-59
2021/12/16 04:39:19;;;;;;;15.55;10.98;;;9.20;68.60;;;;;;5012655;28;20029;-60
2021/12/16 04:41:46;;;;;;;14.27;11.48;;;9.20;68.60;;;;;;5012267;28;20026;-62
2021/12/16 04:44:14;;;;;;;14.82;11.63;;;9.20;68.40;;;;;;5011447;28;20113;-63
2021/12/16 04:46:42;;;;;;;15.90;11.82;;;9.20;68.80;;;;;;5011232;28;20068;-64
2021/12/16 04:49:10;;;;;;;15.15;12.10;;;9.10;69.00;;;;;;5011804;28;20041;-59
2021/12/16 04:51:39;;;;;;;14.68;11.27;;;9.10;69.10;;;;;;5012353;28;20029;-58
2021/12/16 04:54:07;;;;;;;16.23;11.52;;;9.00;69.70;;;;;;5012712;28;20022;-59
2021/12/16 04:56:34;;;;;;;15.52;12.32;;;9.00;69.90;;;;;;4994584;28;20021;-60
2021/12/16 04:59:07;;;;;;;18.70;12.77;;;9.00;69.90;;;;;;5011638;28;20072;-60
2021/12/16 05:01:42;;;;;;;15.55;12.02;;;9.00;69.80;;;;;;5012435;28;20105;-60
2021/12/16 05:04:08;;;;;;;19.23;13.20;;;9.00;70.30;;;;;;5011546;28;20026;-62
2021/12/16 05:06:34;;;;;;;17.85;13.30;;;8.90;70.60;;;;;;5012057;28;20451;-59
2021/12/16 05:09:02;;;;;;;16.95;13.32;;;8.90;70.70;;;;;;5012526;28;20029;-58
2021/12/16 05:11:29;;;;;;;18.15;13.68;;;9.00;70.70;;;;;;5012767;28;20029;-68
2021/12/16 05:16:39;;;;;;;18.70;14.65;;;8.90;70.80;;;;;;5012244;28;20028;-59
2021/12/16 05:19:05;;;;;;;20.83;14.70;;;8.90;70.90;;;;;;5012473;28;20022;-66
2021/12/16 05:24:15;;;;;;;18.35;13.85;;;8.90;71.00;;;;;;5012131;28;20053;-60
2021/12/16 05:24:25;;;;;;;18.08;13.43;;;8.90;71.10;;;;;;5007445;28;20141;-59
2021/12/16 05:27:01;;;;;;;18.67;13.52;;;8.90;71.60;;;;;;5010984;28;20030;-61
2021/12/16 05:29:27;;;;;;;19.63;14.27;;;8.90;71.40;;;;;;5011467;28;20080;-62
2021/12/16 05:31:54;;;;;;;18.13;13.23;;;8.90;71.50;;;;;;5011796;28;20049;-61
2021/12/16 05:34:21;;;;;;;16.65;13.05;;;8.90;71.50;;;;;;5011229;28;20033;-60
2021/12/16 05:36:46;;;;;;;18.35;12.23;;;8.90;71.50;;;;;;5012268;28;20057;-61
2021/12/16 05:39:15;;;;;;;17.30;11.93;;;8.90;71.90;;;;;;5013691;28;20045;-63
2021/12/16 05:41:42;;;;;;;16.95;12.48;;;8.90;71.80;;;;;;5015952;28;20045;-63
2021/12/16 05:44:08;;;;;;;15.75;13.25;;;8.90;71.90;;;;;;5014825;28;20022;-63
2021/12/16 05:46:34;;;;;;;15.82;12.90;;;8.90;71.80;;;;;;5014395;28;20018;-60
2021/12/16 05:49:03;;;;;;;19.35;14.48;;;8.90;72.00;;;;;;5014662;28;20022;-61
2021/12/16 05:51:35;;;;;;;19.70;14.55;;;8.90;72.00;;;;;;5015732;28;20029;-61
2021/12/16 05:54:03;;;;;;;21.00;14.98;;;8.90;72.00;;;;;;5015786;28;20025;-63
2021/12/16 05:56:29;;;;;;;21.75;15.85;;;8.80;72.40;;;;;;5015928;28;20022;-61
2021/12/16 05:58:56;;;;;;;19.98;15.38;;;8.90;72.40;;;;;;5013793;28;20053;-61
2021/12/16 06:01:29;;;;;;;20.70;15.68;;;8.90;72.60;;;;;;5014607;28;20088;-68
2021/12/16 06:03:55;;;;;;;;;;;8.80;72.80;;;;;;5014704;28;20025;-64
2021/12/16 06:06:22;;;;;;;23.02;16.20;;;8.80;73.10;;;;;;5015389;28;19917;-69
2021/12/16 06:08:49;;;;;;;21.85;15.57;;;8.70;73.30;;;;;;5014987;28;20373;-65
2021/12/16 06:11:19;;;;;;;19.50;14.70;;;8.70;73.50;;;;;;5015459;28;20018;-63
2021/12/16 06:14:01;;;;;;;22.10;15.27;;;8.80;73.50;;;;;;5019385;28;20041;-62
2021/12/16 06:27:28;;;;;;;21.27;15.90;;;8.80;73.70;;;;;;5034644;28;20068;-66
2021/12/16 06:29:54;;;;;;;21.73;14.90;;;8.80;73.90;;;;;;5016842;28;20466;-64
2021/12/16 06:32:20;;;;;;;23.20;15.15;;;8.80;74.20;;;;;;5035065;28;20053;-64
2021/12/16 06:34:47;;;;;;;21.23;15.15;;;8.80;74.10;;;;;;5016632;28;20049;-67
2021/12/16 06:39:58;;;;;;;21.45;14.25;;;8.80;74.20;;;;;;5034099;28;20052;-65
2021/12/16 06:42:25;;;;;;;21.15;13.65;;;8.90;74.00;;;;;;5034410;28;20470;-62
2021/12/16 06:45:04;;;;;;;17.67;13.43;;;8.80;73.90;;;;;;5034247;28;20037;-61
2021/12/16 06:47:43;;;;;;;17.73;11.90;;;8.80;73.80;;;;;;5034429;28;20013;-70
2021/12/16 06:50:51;;;;;;;19.33;13.63;;;8.80;73.70;;;;;;5034347;28;20433;-66
2021/12/16 06:53:25;;;;;;;18.10;11.90;;;8.80;73.50;;;;;;5034201;28;20410;-70
2021/12/16 07:01:07;;;;;;;20.17;12.45;;;8.70;74.60;;;;;;5033628;28;20025;-66
2021/12/16 07:03:48;;;;;;;21.23;13.63;;;8.70;74.90;;;;;;5016782;28;20031;-70
2021/12/16 07:06:17;;;;;;;19.15;13.63;;;8.80;74.60;;;;;;5034182;28;20133;-65
2021/12/16 07:08:44;;;;;;;19.88;13.45;;;8.90;74.70;;;;;;5015521;28;20061;-66
2021/12/16 07:11:11;;;;;;;16.25;13.35;;;8.90;74.30;;;;;;5033537;28;20032;-63
2021/12/16 07:13:41;;;;;;;140.40;18.02;;;8.90;74.00;;;;;;5015765;28;20470;-67
2021/12/16 07:16:09;;;;;;;16.58;13.65;;;9.00;74.80;;;;;;5016132;28;20029;-65
2021/12/16 07:18:35;;;;;;;18.95;13.75;;;9.00;74.60;;;;;;5033454;28;20029;-61
2021/12/16 07:21:02;;;;;;;19.55;13.25;;;9.00;75.10;;;;;;5032191;28;20532;-67
2021/12/16 07:23:29;;;;;;;20.10;13.70;;;9.00;75.10;;;;;;5033267;28;20022;-63
2021/12/16 07:25:56;;;;;;;18.23;13.63;;;8.90;75.30;;;;;;4998860;28;20040;-65
2021/12/16 07:28:22;;;;;;;20.77;15.95;;;8.80;76.70;;;;;;5033333;28;20029;-62
2021/12/16 07:30:48;;;;;;;21.70;15.38;;;8.80;76.80;;;;;;5032654;28;20481;-65
2021/12/16 07:33:16;;;;;;;20.38;13.82;;;8.80;76.70;;;;;;5015512;28;20029;-62
2021/12/16 07:35:44;;;;;;;21.17;14.70;;;8.90;76.10;;;;;;5015119;28;20061;-73
2021/12/16 07:38:11;;;;;;;19.60;14.02;;;8.80;75.60;;;;;;5015577;28;20367;-60
2021/12/16 07:40:38;;;;;;;26.98;16.30;;;8.80;75.30;;;;;;5032582;28;20033;-62
2021/12/16 07:45:36;;;;;;;23.33;16.05;;;8.80;75.70;;;;;;5033135;28;20040;-64
2021/12/16 07:48:03;;;;;;;25.42;14.77;;;8.80;75.90;;;;;;5014776;28;20118;-65
2021/12/16 07:50:29;;;;;;;18.33;14.13;;;8.80;76.00;;;;;;5032864;28;20466;-62
2021/12/16 07:52:55;;;;;;;19.42;15.02;;;8.80;76.10;;;;;;5014653;28;20059;-61
2021/12/16 07:55:22;;;;;;;20.75;15.40;;;8.80;76.50;;;;;;5032497;28;20035;-62
2021/12/16 07:57:48;;;;;;;22.23;14.48;;;8.80;76.80;;;;;;5032150;28;20057;-63
2021/12/16 08:00:21;;;;;;;22.65;14.27;;;8.90;77.20;;;;;;5015511;28;20454;-62
2021/12/16 08:02:48;;;;;;;18.75;13.20;;;8.80;77.20;;;;;;5014322;28;20033;-71
2021/12/16 08:05:17;;;;;;;18.52;12.82;;;8.70;77.50;;;;;;4999894;28;20034;-64
2021/12/16 08:07:44;;;;;;;17.48;12.73;;;8.70;76.90;;;;;;4999889;28;20347;-71
2021/12/16 08:10:15;;;;;;;16.70;12.07;;;8.70;77.10;;;;;;5032753;28;20437;-62
2021/12/16 08:12:41;;;;;;;18.17;12.27;;;8.70;76.50;;;;;;5032959;28;20020;-64
2021/12/16 08:15:08;;;;;;;16.95;12.35;;;8.70;76.50;;;;;;5032176;28;20080;-61
2021/12/16 08:17:34;;;;;;;19.10;12.98;;;8.80;76.40;;;;;;5015539;28;20060;-64
2021/12/16 08:20:00;;;;;;;18.73;12.95;;;8.90;75.60;;;;;;5014290;28;20064;-63
2021/12/16 08:22:26;;;;;;;14.63;10.45;;;8.90;75.20;;;;;;5014404;28;20021;-66
2021/12/16 08:24:52;;;;;;;17.63;11.82;;;8.80;74.90;;;;;;5014514;28;20029;-65
2021/12/16 08:27:18;;;;;;;14.75;10.65;;;8.80;75.20;;;;;;5032755;28;20454;-62
2021/12/16 08:29:44;;;;;;;18.10;10.48;;;8.80;75.20;;;;;;5032448;28;20363;-74
2021/12/16 08:32:10;;;;;;;18.92;11.63;;;8.80;75.20;;;;;;5032353;28;20021;-66
2021/12/16 08:34:39;;;;;;;18.40;11.80;;;8.90;75.40;;;;;;5013346;28;20034;-64
2021/12/16 08:37:07;;;;;;;18.52;10.60;;;8.90;75.60;;;;;;5031338;28;20565;-65
2021/12/16 08:39:34;;;;;;;18.40;11.60;;;9.00;75.70;;;;;;5032000;28;20022;-66
2021/12/16 08:42:01;;;;;;;20.52;12.32;;;9.00;76.60;;;;;;4997164;28;20052;-66
2021/12/16 08:44:27;;;;;;;22.25;11.15;;;9.10;76.70;;;;;;5026501;28;20179;-63
2021/12/16 08:46:59;;;;;;;21.13;12.18;;;9.20;75.50;;;;;;5012593;28;20041;-60
2021/12/16 08:49:27;;;;;;;18.05;9.75;;;9.20;75.90;;;;;;5014406;28;20103;-66
2021/12/16 08:51:55;;;;;;;15.93;10.00;;;9.20;75.40;;;;;;5031075;28;20026;-65
2021/12/16 08:54:22;;;;;;;15.38;10.82;;;9.20;76.30;;;;;;5030618;28;20466;-63
2021/12/16 08:56:48;;;;;;;13.85;8.27;;;9.20;76.00;;;;;;5031281;28;20474;-63
2021/12/16 08:59:15;;;;;;;15.02;8.05;;;9.20;75.50;;;;;;5031863;28;20033;-61
2021/12/16 09:01:46;;;;;;;14.50;9.02;;;9.20;75.40;;;;;;5031741;28;20025;-62
2021/12/16 09:04:15;;;;;;;14.45;9.20;;;9.20;75.30;;;;;;5030690;28;20029;-65
2021/12/16 09:06:40;;;;;;;10.93;7.47;;;9.30;75.60;;;;;;5014046;28;20053;-67
2021/12/16 09:09:07;;;;;;;11.65;7.78;;;9.50;75.00;;;;;;5012418;28;20068;-70
2021/12/16 09:11:38;;;;;;;9.23;6.70;;;9.50;74.30;;;;;;5008529;28;20113;-65
2021/12/16 09:14:05;;;;;;;9.05;6.18;;;9.60;74.10;;;;;;5033315;28;20128;-66
2021/12/16 09:16:34;;;;;;;12.10;6.88;;;9.50;74.00;;;;;;5018097;28;20112;-63
2021/12/16 09:19:02;;;;;;;10.38;6.40;;;9.40;74.80;;;;;;5035461;28;20025;-68
2021/12/16 09:21:49;;;;;;;11.40;8.55;;;9.30;74.80;;;;;;5016813;28;20041;-60
2021/12/16 09:24:14;;;;;;;12.93;6.45;;;9.40;75.00;;;;;;5035710;28;20033;-60
2021/12/16 09:26:42;;;;;;;9.90;5.97;;;9.40;74.20;;;;;;5017212;28;20037;-64
2021/12/16 09:29:08;;;;;;;7.80;5.32;;;9.40;74.10;;;;;;5017671;28;20033;-57
2021/12/16 09:31:34;;;;;;;6.93;5.28;;;9.30;74.00;;;;;;5017368;28;20029;-65
2021/12/16 09:34:05;;;;;;;19.70;5.55;;;9.40;74.00;;;;;;5017827;28;20033;-59
2021/12/16 09:36:33;;;;;;;8.57;5.57;;;9.40;73.80;;;;;;5035267;28;20082;-60
2021/12/16 09:39:21;;;;;;;8.50;4.95;;;9.60;73.40;;;;;;5017435;28;20022;-61
2021/12/16 09:41:48;;;;;;;6.78;5.30;;;9.60;72.70;;;;;;5034310;28;20112;-60
2021/12/16 09:44:16;;;;;;;7.65;5.13;;;9.80;72.70;;;;;;5033536;28;20061;-62
2021/12/16 09:46:44;;;;;;;6.68;4.70;;;10.00;72.20;;;;;;5034344;28;20535;-61
2021/12/16 09:49:11;;;;;;;8.52;4.60;;;10.10;71.20;;;;;;5035312;28;20461;-56
2021/12/16 09:51:41;;;;;;;10.52;4.97;;;10.10;70.40;;;;;;5034894;28;20029;-55
2021/12/16 09:54:10;;;;;;;11.10;4.95;;;10.00;70.50;;;;;;5035307;28;20029;-56
2021/12/16 09:56:39;;;;;;;7.22;4.80;;;10.00;70.50;;;;;;5034719;28;20025;-65
2021/12/16 09:59:10;;;;;;;11.02;4.93;;;10.00;70.70;;;;;;5034706;28;20026;-61
2021/12/16 10:01:37;;;;;;;5.80;4.70;;;10.20;70.30;;;;;;5017205;28;20029;-69
2021/12/16 10:04:05;;;;;;;7.28;4.80;;;10.20;69.90;;;;;;5034781;28;20545;-56
2021/12/16 10:06:35;;;;;;;8.15;5.07;;;10.20;69.80;;;;;;5017495;28;20037;-60
2021/12/16 10:09:05;;;;;;;9.88;5.32;;;10.10;69.80;;;;;;5034366;28;20036;-62
2021/12/16 10:11:33;;;;;;;9.77;5.45;;;10.10;70.40;;;;;;5001625;28;20029;-60
2021/12/16 10:19:14;;;;;;;11.95;5.95;;;10.00;69.80;;;;;;5035211;28;20191;-62
2021/12/16 10:21:42;;;;;;;9.98;6.13;;;10.00;69.50;;;;;;5016369;28;20064;-60
2021/12/16 10:24:28;;;;;;;12.73;6.35;;;10.00;69.40;;;;;;5034445;28;20108;-62
2021/12/16 10:27:11;;;;;;;8.70;5.18;;;9.90;69.60;;;;;;5014795;28;20068;-63
2021/12/16 10:29:54;;;;;;;10.77;6.00;;;9.80;70.10;;;;;;5034105;28;20033;-70
2021/12/16 10:32:53;;;;;;;12.48;5.95;;;9.70;70.00;;;;;;5016547;28;20026;-61
2021/12/16 10:35:19;;;;;;;7.68;5.80;;;9.70;69.90;;;;;;4991432;28;20064;-62
2021/12/16 10:37:51;;;;;;;13.13;5.97;;;9.80;69.90;;;;;;5015796;28;20025;-63
2021/12/16 10:40:32;;;;;;;7.93;5.43;;;9.80;69.10;;;;;;5017030;28;20033;-62
2021/12/16 10:43:00;;;;;;;7.70;5.78;;;9.80;69.10;;;;;;5015960;28;20210;-63
2021/12/16 10:45:39;;;;;;;7.95;5.90;;;9.80;69.20;;;;;;5016414;28;20037;-62
2021/12/16 10:48:24;;;;;;;10.57;6.18;;;9.80;68.90;;;;;;5034425;28;20275;-61
2021/12/16 10:51:02;;;;;;;8.63;5.65;;;9.80;68.90;;;;;;5015797;28;20036;-63
2021/12/16 10:53:53;;;;;;;9.48;5.15;;;9.80;69.20;;;;;;5033674;28;20033;-61
2021/12/16 10:56:25;;;;;;;9.63;6.25;;;9.80;68.90;;;;;;5034020;28;20029;-61
2021/12/16 10:58:53;;;;;;;9.27;5.85;;;9.70;69.10;;;;;;5033294;28;20603;-64
2021/12/16 11:01:42;;;;;;;9.25;6.38;;;9.70;69.30;;;;;;5016002;28;20029;-66
2021/12/16 11:04:15;;;;;;;9.68;5.88;;;9.80;69.20;;;;;;5015856;28;20048;-57
2021/12/16 11:06:46;;;;;;;10.35;6.95;;;9.70;69.40;;;;;;5033245;28;20049;-62
2021/12/16 11:09:26;;;;;;;11.35;5.80;;;9.80;69.50;;;;;;5034027;28;20103;-61
2021/12/16 11:12:10;;;;;;;10.07;6.25;;;9.70;69.50;;;;;;5033181;28;20381;-61
2021/12/16 11:14:39;;;;;;;8.95;5.80;;;9.80;69.70;;;;;;5033791;28;20101;-60
2021/12/16 11:17:10;;;;;;;7.30;5.47;;;9.70;69.60;;;;;;5033429;28;20083;-61
2021/12/16 11:19:41;;;;;;;8.10;6.18;;;9.80;69.40;;;;;;5033359;28;20041;-60
2021/12/16 11:22:08;;;;;;;10.18;5.85;;;9.70;69.30;;;;;;5015827;28;20056;-60
2021/12/16 11:24:34;;;;;;;7.93;6.10;;;9.70;69.20;;;;;;5015348;28;20037;-61
2021/12/16 11:27:27;;;;;;;7.70;5.95;;;9.60;69.30;;;;;;5014518;28;20026;-60
2021/12/16 11:29:55;;;;;;;9.75;6.88;;;9.50;69.80;;;;;;5032145;28;20025;-61
2021/12/16 11:32:41;;;;;;;10.50;5.85;;;9.50;70.10;;;;;;4994543;28;20401;-60
2021/12/16 11:35:45;;;;;;;8.95;6.20;;;9.60;70.90;;;;;;5033430;28;20033;-57
2021/12/16 11:38:21;;;;;;;9.97;6.20;;;9.80;69.20;;;;;;4934396;29;20034;-56
2021/12/16 11:40:53;;;;;;;8.13;5.88;;;10.00;68.90;;;;;;5023223;28;20061;-61
2021/12/16 11:43:50;;;;;;;9.05;6.10;;;10.10;68.00;;;;;;5015034;28;20032;-61
2021/12/16 11:46:36;;;;;;;7.93;5.88;;;10.20;67.50;;;;;;5032757;28;20088;-61
2021/12/16 11:49:21;;;;;;;8.95;5.65;;;10.30;67.20;;;;;;5031458;28;20205;-63
2021/12/16 11:51:50;;;;;;;9.43;5.90;;;10.40;67.00;;;;;;5030343;28;20103;-66
2021/12/16 11:54:31;;;;;;;8.23;6.07;;;10.30;66.80;;;;;;5015099;28;20021;-66
2021/12/16 11:56:59;;;;;;;8.38;6.20;;;10.50;66.80;;;;;;5011356;28;20064;-64
2021/12/16 11:59:27;;;;;;;7.03;5.93;;;10.60;66.50;;;;;;5013310;28;20022;-65
2021/12/16 12:01:54;;;;;;;9.23;6.18;;;10.60;65.90;;;;;;5012795;28;20091;-66
2021/12/16 12:04:27;;;;;;;10.48;7.00;;;10.50;66.00;;;;;;5032675;28;20033;-63
2021/12/16 12:06:53;;;;;;;7.78;5.68;;;10.50;66.40;;;;;;5031748;28;20038;-64
2021/12/16 12:09:21;;;;;;;11.23;6.65;;;10.60;66.00;;;;;;5014692;28;20037;-65
2021/12/16 12:11:48;;;;;;;9.15;6.78;;;10.50;66.40;;;;;;5013809;28;20025;-61
2021/12/16 12:14:20;;;;;;;9.18;6.18;;;10.40;66.40;;;;;;5030475;28;20123;-68
2021/12/16 12:16:49;;;;;;;12.20;7.50;;;10.40;66.50;;;;;;5031410;28;20458;-65
2021/12/16 12:19:24;;;;;;;11.32;7.50;;;10.30;66.70;;;;;;5014294;28;20136;-66
2021/12/16 12:21:56;;;;;;;10.77;8.02;;;10.20;67.20;;;;;;5029948;28;20017;-69
2021/12/16 12:24:32;;;;;;;12.45;7.38;;;10.20;67.50;;;;;;5031679;28;20025;-60
2021/12/16 12:27:12;;;;;;;10.70;8.43;;;10.10;67.80;;;;;;5013516;28;20037;-67
2021/12/16 12:29:40;;;;;;;11.60;8.10;;;10.10;67.60;;;;;;5026517;28;20470;-62
2021/12/16 12:32:12;;;;;;;13.52;8.65;;;10.10;68.00;;;;;;5013402;28;20287;-63
2021/12/16 12:34:41;;;;;;;11.07;8.88;;;10.10;68.30;;;;;;5031900;28;20033;-63
2021/12/16 12:37:11;;;;;;;14.13;9.48;;;10.10;68.30;;;;;;5013293;28;20327;-62
2021/12/16 12:39:42;;;;;;;14.88;9.88;;;10.10;68.30;;;;;;5031359;28;20044;-62
2021/12/16 12:42:11;;;;;;;14.10;8.88;;;10.10;68.50;;;;;;5012699;28;20025;-67
2021/12/16 12:44:37;;;;;;;12.57;8.98;;;10.00;68.80;;;;;;5030281;28;20466;-66
2021/12/16 12:47:09;;;;;;;13.38;9.13;;;10.00;68.80;;;;;;4996306;28;20033;-64
2021/12/16 12:49:36;;;;;;;13.75;9.68;;;10.00;69.10;;;;;;5029501;28;20052;-64
2021/12/16 12:52:13;;;;;;;13.48;10.05;;;9.90;69.40;;;;;;5012374;28;20060;-63
2021/12/16 12:54:43;;;;;;;12.18;9.55;;;10.00;69.50;;;;;;5029319;28;20037;-63
2021/12/16 12:57:26;;;;;;;14.15;8.93;;;10.00;69.90;;;;;;5030583;28;20021;-64
2021/12/16 12:59:54;;;;;;;16.80;9.38;;;9.90;70.30;;;;;;5011639;28;20026;-65
2021/12/16 13:02:23;;;;;;;13.45;10.10;;;9.90;71.10;;;;;;5031304;28;20124;-66
2021/12/16 13:05:07;;;;;;;14.40;10.52;;;9.90;72.10;;;;;;5030315;28;20480;-68
2021/12/16 13:07:44;;;;;;;16.13;10.90;;;9.80;72.10;;;;;;5012929;28;20069;-64
2021/12/16 13:10:21;;;;;;;12.23;9.70;;;9.90;71.90;;;;;;5013315;28;20040;-62
2021/12/16 13:13:03;;;;;;;18.40;11.77;;;9.80;72.00;;;;;;5031769;28;20029;-66
2021/12/16 13:26:49;;;;;;;14.90;11.70;;;9.60;73.20;;;;;;5030193;28;20029;-61
2021/12/16 13:29:39;;;;;;;17.10;12.75;;;9.60;73.40;;;;;;5031216;28;20021;-62
2021/12/16 13:32:27;;;;;;;20.13;13.85;;;9.50;73.80;;;;;;5030091;28;20072;-63
2021/12/16 13:37:48;;;;;;;19.83;13.10;;;9.70;73.20;;;;;;5031088;28;20037;-63
2021/12/16 13:40:22;;;;;;;18.08;13.23;;;9.70;72.50;;;;;;5031028;28;20488;-64
2021/12/16 13:42:54;;;;;;;15.82;12.15;;;9.70;72.40;;;;;;5013131;28;20025;-66
2021/12/16 13:45:28;;;;;;;16.77;11.52;;;9.80;72.60;;;;;;5031343;28;20030;-64
2021/12/16 13:48:29;;;;;;;14.80;11.77;;;9.70;72.80;;;;;;5013115;28;20063;-63
2021/12/16 14:03:14;;;;;;;17.42;12.50;;;9.50;73.60;;;;;;5034360;28;20497;-65
2021/12/16 14:06:12;;;;;;;16.38;13.10;;;9.60;73.10;;;;;;5033830;28;20097;-62
2021/12/16 14:08:43;;;;;;;20.63;12.88;;;9.60;73.00;;;;;;5020428;28;20077;-67
2021/12/16 14:12:15;;;;;;;18.40;13.55;;;9.70;72.90;;;;;;5033396;28;20025;-69
2021/12/16 14:14:44;;;;;;;20.83;13.30;;;9.60;73.10;;;;;;5031951;28;20366;-65
2021/12/16 14:17:52;;;;;;;19.13;13.93;;;9.60;72.80;;;;;;5033505;28;20080;-66
2021/12/16 14:23:40;;;;;;;14.38;11.90;;;9.50;72.60;;;;;;5034472;28;20036;-66
2021/12/16 14:26:21;;;;;;;17.65;13.18;;;9.50;72.60;;;;;;5015394;28;20033;-65
2021/12/16 14:37:17;;;;;;;15.85;11.82;;;9.30;73.10;;;;;;5033210;28;20032;-64
2021/12/16 14:45:18;;;;;;;18.23;13.45;;;9.40;73.00;;;;;;5033770;28;20032;-60
2021/12/16 14:50:55;;;;;;;15.52;11.65;;;9.40;72.90;;;;;;5034499;28;20072;-64
2021/12/16 14:53:51;;;;;;;17.25;11.48;;;9.40;73.00;;;;;;5016635;28;20486;-63
2021/12/16 14:56:38;;;;;;;14.50;10.82;;;9.40;72.90;;;;;;5032977;28;20049;-66
2021/12/16 14:59:11;;;;;;;16.13;11.88;;;9.40;72.40;;;;;;5015998;28;20037;-67
2021/12/16 15:01:45;;;;;;;13.82;10.93;;;9.40;72.40;;;;;;5017144;28;20100;-64
2021/12/16 15:04:15;;;;;;;22.00;11.45;;;9.40;72.70;;;;;;5015202;28;20125;-69
2021/12/16 15:07:05;;;;;;;20.73;10.57;;;9.40;72.70;;;;;;5033786;28;20075;-63
2021/12/16 15:09:36;;;;;;;14.15;9.88;;;9.50;72.50;;;;;;5033811;28;20149;-62
2021/12/16 15:12:13;;;;;;;13.82;10.65;;;9.50;72.10;;;;;;5015502;28;20022;-66
2021/12/16 15:17:43;;;;;;;13.30;10.75;;;9.50;72.10;;;;;;5033368;28;20213;-64
2021/12/16 15:42:55;;;;;;;15.95;11.50;;;9.20;75.00;;;;;;5033075;28;20048;-63
2021/12/16 15:45:30;;;;;;;17.15;11.70;;;9.20;75.10;;;;;;5015129;28;20032;-61
2021/12/16 15:48:02;;;;;;;13.18;9.82;;;9.30;75.10;;;;;;5033149;28;20036;-62
2021/12/16 15:50:34;;;;;;;14.65;10.40;;;9.30;75.30;;;;;;5010306;28;20034;-66
2021/12/16 15:53:02;;;;;;;13.65;10.07;;;9.20;75.00;;;;;;5013631;28;20082;-65
2021/12/16 15:55:41;;;;;;;16.70;10.07;;;9.20;75.10;;;;;;5012996;28;20037;-63
2021/12/16 15:58:28;;;;;;;14.05;11.10;;;9.20;75.40;;;;;;4997671;28;20511;-65
2021/12/16 16:00:59;;;;;;;13.18;9.70;;;9.10;75.70;;;;;;5031452;28;20128;-64
2021/12/16 16:03:27;;;;;;;16.35;9.82;;;9.10;76.20;;;;;;5032526;28;20036;-63
2021/12/16 16:05:55;;;;;;;15.07;10.90;;;9.00;76.20;;;;;;5014528;28;20036;-67
2021/12/16 16:08:24;;;;;;;13.43;10.27;;;9.00;76.60;;;;;;5015012;28;20033;-65
2021/12/16 16:10:58;;;;;;;16.35;10.95;;;9.00;76.80;;;;;;5032458;28;20048;-65
2021/12/16 16:13:28;;;;;;;14.23;10.65;;;9.00;77.50;;;;;;5032168;28;20029;-58
2021/12/16 16:15:56;;;;;;;13.38;10.25;;;9.00;77.40;;;;;;5032370;28;20034;-64
2021/12/16 16:21:09;;;;;;;15.40;10.98;;;9.00;78.30;;;;;;5014975;28;20029;-62
2021/12/16 16:23:38;;;;;;;14.00;11.00;;;8.90;78.70;;;;;;5014253;28;20034;-62
2021/12/16 16:26:07;;;;;;;12.10;9.13;;;9.00;78.80;;;;;;5031872;28;20330;-63
2021/12/16 16:28:34;;;;;;;11.07;9.50;;;8.90;78.80;;;;;;5014032;28;20433;-62
2021/12/16 16:31:01;;;;;;;12.73;10.30;;;8.90;79.10;;;;;;5013729;28;20068;-64
2021/12/16 16:33:31;;;;;;;14.77;10.48;;;8.90;79.30;;;;;;5014529;28;20030;-64
2021/12/16 16:36:03;;;;;;;13.23;9.25;;;8.80;79.40;;;;;;5013887;28;20112;-67
2021/12/16 16:38:32;;;;;;;10.43;8.13;;;8.80;79.70;;;;;;5014932;28;20025;-64
2021/12/16 16:41:03;;;;;;;10.80;8.13;;;8.80;79.50;;;;;;5013731;28;20033;-67
2021/12/16 16:43:36;;;;;;;11.00;8.40;;;8.70;79.60;;;;;;5031965;28;20021;-65
2021/12/16 16:46:08;;;;;;;9.70;7.55;;;8.70;79.70;;;;;;5013600;28;20033;-63
2021/12/16 16:48:51;;;;;;;9.05;6.80;;;8.70;79.50;;;;;;5014139;28;20040;-65
2021/12/16 16:51:29;;;;;;;10.38;8.23;;;8.70;79.70;;;;;;5013597;28;20105;-67